sensor_id;sensor_type;location;lat;lon;timestamp;P1;durP1;ratioP1;P2;durP2;ratioP2
10945;SDS011;5525;42.648;23.368;2023-12-28T00:01:47;15.40;;;9.55;;
10945;SDS011;5525;42.648;23.368;2023-12-28T00:04:15;14.80;;;8.70;;
10945;SDS011;5525;42.648;23.368;2023-12-28T00:06:42;12.20;;;8.23;;
10945;SDS011;5525;42.648;23.368;2023-12-28T00:09:09;13.40;;;8.93;;
10945;SDS011;5525;42.648;23.368;2023-12-28T00:11:36;11.15;;;8.40;;
10945;SDS011;5525;42.648;23.368;2023-12-28T00:14:04;13.65;;;8.65;;
10945;SDS011;5525;42.648;23.368;2023-12-28T00:16:31;18.20;;;9.00;;
10945;SDS011;5525;42.648;23.368;2023-12-28T00:18:59;14.70;;;9.10;;
10945;SDS011;5525;42.648;23.368;2023-12-28T00:21:27;14.50;;;8.68;;
10945;SDS011;5525;42.648;23.368;2023-12-28T00:23:54;16.73;;;8.52;;
10945;SDS011;5525;42.648;23.368;2023-12-28T00:26:20;13.98;;;7.72;;
10945;SDS011;5525;42.648;23.368;2023-12-28T00:28:47;12.38;;;8.23;;
10945;SDS011;5525;42.648;23.368;2023-12-28T00:31:15;11.48;;;7.88;;
10945;SDS011;5525;42.648;23.368;2023-12-28T00:33:42;10.70;;;6.72;;
10945;SDS011;5525;42.648;23.368;2023-12-28T00:36:09;9.57;;;5.57;;
10945;SDS011;5525;42.648;23.368;2023-12-28T00:38:36;8.68;;;5.65;;
10945;SDS011;5525;42.648;23.368;2023-12-28T00:41:02;9.35;;;5.60;;
10945;SDS011;5525;42.648;23.368;2023-12-28T00:43:29;8.40;;;5.30;;
10945;SDS011;5525;42.648;23.368;2023-12-28T00:45:56;9.65;;;5.80;;
10945;SDS011;5525;42.648;23.368;2023-12-28T00:48:24;7.72;;;5.70;;
10945;SDS011;5525;42.648;23.368;2023-12-28T00:50:51;9.30;;;5.90;;
10945;SDS011;5525;42.648;23.368;2023-12-28T00:53:20;9.32;;;5.38;;
10945;SDS011;5525;42.648;23.368;2023-12-28T00:55:47;7.32;;;5.00;;
10945;SDS011;5525;42.648;23.368;2023-12-28T00:58:14;8.23;;;5.55;;
10945;SDS011;5525;42.648;23.368;2023-12-28T01:00:40;7.05;;;5.28;;
10945;SDS011;5525;42.648;23.368;2023-12-28T01:03:07;9.20;;;6.38;;
10945;SDS011;5525;42.648;23.368;2023-12-28T01:05:35;13.75;;;8.13;;
10945;SDS011;5525;42.648;23.368;2023-12-28T01:08:02;14.18;;;7.65;;
10945;SDS011;5525;42.648;23.368;2023-12-28T01:10:29;10.93;;;6.78;;
10945;SDS011;5525;42.648;23.368;2023-12-28T01:12:56;10.15;;;6.38;;
10945;SDS011;5525;42.648;23.368;2023-12-28T01:15:23;9.45;;;6.25;;
10945;SDS011;5525;42.648;23.368;2023-12-28T01:17:50;9.70;;;6.47;;
10945;SDS011;5525;42.648;23.368;2023-12-28T01:20:16;10.05;;;7.25;;
10945;SDS011;5525;42.648;23.368;2023-12-28T01:22:44;9.80;;;6.28;;
10945;SDS011;5525;42.648;23.368;2023-12-28T01:25:11;6.95;;;4.53;;
10945;SDS011;5525;42.648;23.368;2023-12-28T01:27:38;7.95;;;5.40;;
10945;SDS011;5525;42.648;23.368;2023-12-28T01:30:05;9.30;;;5.80;;
10945;SDS011;5525;42.648;23.368;2023-12-28T01:32:33;7.70;;;5.55;;
10945;SDS011;5525;42.648;23.368;2023-12-28T01:35:00;11.25;;;6.43;;
10945;SDS011;5525;42.648;23.368;2023-12-28T01:37:27;8.95;;;5.95;;
10945;SDS011;5525;42.648;23.368;2023-12-28T01:39:57;9.18;;;6.43;;
10945;SDS011;5525;42.648;23.368;2023-12-28T01:42:24;11.88;;;7.22;;
10945;SDS011;5525;42.648;23.368;2023-12-28T01:44:51;10.20;;;6.55;;
10945;SDS011;5525;42.648;23.368;2023-12-28T01:47:18;9.73;;;6.22;;
10945;SDS011;5525;42.648;23.368;2023-12-28T01:49:45;10.50;;;5.90;;
10945;SDS011;5525;42.648;23.368;2023-12-28T01:52:12;9.30;;;6.05;;
10945;SDS011;5525;42.648;23.368;2023-12-28T01:54:42;8.55;;;5.32;;
10945;SDS011;5525;42.648;23.368;2023-12-28T01:57:10;8.55;;;5.40;;
10945;SDS011;5525;42.648;23.368;2023-12-28T01:59:37;8.57;;;4.95;;
10945;SDS011;5525;42.648;23.368;2023-12-28T02:02:04;8.32;;;5.50;;
10945;SDS011;5525;42.648;23.368;2023-12-28T02:04:31;8.80;;;5.00;;
10945;SDS011;5525;42.648;23.368;2023-12-28T02:06:59;8.70;;;5.72;;
10945;SDS011;5525;42.648;23.368;2023-12-28T02:09:26;7.47;;;5.43;;
10945;SDS011;5525;42.648;23.368;2023-12-28T02:11:53;8.27;;;5.57;;
10945;SDS011;5525;42.648;23.368;2023-12-28T02:14:22;7.57;;;5.50;;
10945;SDS011;5525;42.648;23.368;2023-12-28T02:16:50;10.32;;;5.68;;
10945;SDS011;5525;42.648;23.368;2023-12-28T02:19:25;8.75;;;5.20;;
10945;SDS011;5525;42.648;23.368;2023-12-28T02:21:59;11.05;;;6.50;;
10945;SDS011;5525;42.648;23.368;2023-12-28T02:24:26;10.65;;;6.40;;
10945;SDS011;5525;42.648;23.368;2023-12-28T02:26:54;11.98;;;6.57;;
10945;SDS011;5525;42.648;23.368;2023-12-28T02:29:20;10.90;;;6.72;;
10945;SDS011;5525;42.648;23.368;2023-12-28T02:31:50;8.57;;;4.40;;
10945;SDS011;5525;42.648;23.368;2023-12-28T02:34:31;6.43;;;4.57;;
10945;SDS011;5525;42.648;23.368;2023-12-28T02:37:03;6.25;;;4.68;;
10945;SDS011;5525;42.648;23.368;2023-12-28T02:39:31;10.60;;;6.60;;
10945;SDS011;5525;42.648;23.368;2023-12-28T02:42:00;10.10;;;6.32;;
10945;SDS011;5525;42.648;23.368;2023-12-28T02:44:26;9.10;;;6.40;;
10945;SDS011;5525;42.648;23.368;2023-12-28T02:46:53;9.68;;;6.43;;
10945;SDS011;5525;42.648;23.368;2023-12-28T02:49:20;10.82;;;7.30;;
10945;SDS011;5525;42.648;23.368;2023-12-28T02:51:46;10.13;;;7.25;;
10945;SDS011;5525;42.648;23.368;2023-12-28T02:54:13;12.75;;;9.60;;
10945;SDS011;5525;42.648;23.368;2023-12-28T02:56:40;8.88;;;5.95;;
10945;SDS011;5525;42.648;23.368;2023-12-28T02:59:08;9.52;;;5.70;;
10945;SDS011;5525;42.648;23.368;2023-12-28T03:01:35;9.48;;;6.40;;
10945;SDS011;5525;42.648;23.368;2023-12-28T03:04:01;10.93;;;6.85;;
10945;SDS011;5525;42.648;23.368;2023-12-28T03:06:28;10.57;;;7.38;;
10945;SDS011;5525;42.648;23.368;2023-12-28T03:08:55;11.75;;;8.43;;
10945;SDS011;5525;42.648;23.368;2023-12-28T03:11:22;12.32;;;7.70;;
10945;SDS011;5525;42.648;23.368;2023-12-28T03:13:49;9.10;;;5.55;;
10945;SDS011;5525;42.648;23.368;2023-12-28T03:16:17;7.70;;;5.30;;
10945;SDS011;5525;42.648;23.368;2023-12-28T03:18:44;7.13;;;5.30;;
10945;SDS011;5525;42.648;23.368;2023-12-28T03:21:10;7.75;;;5.07;;
10945;SDS011;5525;42.648;23.368;2023-12-28T03:23:37;7.57;;;5.43;;
10945;SDS011;5525;42.648;23.368;2023-12-28T03:26:04;7.45;;;4.90;;
10945;SDS011;5525;42.648;23.368;2023-12-28T03:28:31;7.65;;;5.32;;
10945;SDS011;5525;42.648;23.368;2023-12-28T03:30:58;8.95;;;5.25;;
10945;SDS011;5525;42.648;23.368;2023-12-28T03:33:26;9.40;;;5.05;;
10945;SDS011;5525;42.648;23.368;2023-12-28T03:35:53;7.82;;;5.55;;
10945;SDS011;5525;42.648;23.368;2023-12-28T03:38:20;10.02;;;5.32;;
10945;SDS011;5525;42.648;23.368;2023-12-28T03:40:47;8.38;;;5.38;;
10945;SDS011;5525;42.648;23.368;2023-12-28T03:43:15;8.10;;;5.22;;
10945;SDS011;5525;42.648;23.368;2023-12-28T03:45:41;7.07;;;5.30;;
10945;SDS011;5525;42.648;23.368;2023-12-28T03:48:08;7.65;;;5.53;;
10945;SDS011;5525;42.648;23.368;2023-12-28T03:50:36;7.35;;;5.43;;
10945;SDS011;5525;42.648;23.368;2023-12-28T03:53:03;8.95;;;5.65;;
10945;SDS011;5525;42.648;23.368;2023-12-28T03:55:30;8.93;;;5.43;;
10945;SDS011;5525;42.648;23.368;2023-12-28T03:57:57;10.15;;;6.47;;
10945;SDS011;5525;42.648;23.368;2023-12-28T04:00:24;8.52;;;6.32;;
10945;SDS011;5525;42.648;23.368;2023-12-28T04:02:51;7.82;;;4.97;;
10945;SDS011;5525;42.648;23.368;2023-12-28T04:05:18;7.13;;;4.90;;
10945;SDS011;5525;42.648;23.368;2023-12-28T04:07:46;9.57;;;5.78;;
10945;SDS011;5525;42.648;23.368;2023-12-28T04:10:12;7.22;;;5.70;;
10945;SDS011;5525;42.648;23.368;2023-12-28T04:12:39;8.23;;;5.70;;
10945;SDS011;5525;42.648;23.368;2023-12-28T04:15:06;8.50;;;5.65;;
10945;SDS011;5525;42.648;23.368;2023-12-28T04:17:33;8.18;;;5.97;;
10945;SDS011;5525;42.648;23.368;2023-12-28T04:20:00;8.98;;;6.10;;
10945;SDS011;5525;42.648;23.368;2023-12-28T04:22:27;9.43;;;5.95;;
10945;SDS011;5525;42.648;23.368;2023-12-28T04:24:55;10.05;;;5.45;;
10945;SDS011;5525;42.648;23.368;2023-12-28T04:27:22;8.32;;;4.97;;
10945;SDS011;5525;42.648;23.368;2023-12-28T04:29:48;8.45;;;5.88;;
10945;SDS011;5525;42.648;23.368;2023-12-28T04:32:15;8.98;;;6.47;;
10945;SDS011;5525;42.648;23.368;2023-12-28T04:34:42;11.63;;;7.35;;
10945;SDS011;5525;42.648;23.368;2023-12-28T04:37:09;10.55;;;7.15;;
10945;SDS011;5525;42.648;23.368;2023-12-28T04:39:36;12.25;;;7.20;;
10945;SDS011;5525;42.648;23.368;2023-12-28T04:42:05;12.90;;;8.60;;
10945;SDS011;5525;42.648;23.368;2023-12-28T04:44:31;18.15;;;10.50;;
10945;SDS011;5525;42.648;23.368;2023-12-28T04:46:58;16.40;;;9.82;;
10945;SDS011;5525;42.648;23.368;2023-12-28T04:49:27;16.05;;;10.50;;
10945;SDS011;5525;42.648;23.368;2023-12-28T04:51:53;15.82;;;11.50;;
10945;SDS011;5525;42.648;23.368;2023-12-28T04:54:20;16.15;;;10.75;;
10945;SDS011;5525;42.648;23.368;2023-12-28T04:56:47;16.63;;;10.18;;
10945;SDS011;5525;42.648;23.368;2023-12-28T04:59:15;18.08;;;10.98;;
10945;SDS011;5525;42.648;23.368;2023-12-28T05:01:42;17.48;;;9.18;;
10945;SDS011;5525;42.648;23.368;2023-12-28T05:04:09;15.77;;;9.98;;
10945;SDS011;5525;42.648;23.368;2023-12-28T05:06:35;16.73;;;10.93;;
10945;SDS011;5525;42.648;23.368;2023-12-28T05:09:03;15.85;;;9.77;;
10945;SDS011;5525;42.648;23.368;2023-12-28T05:11:30;14.90;;;9.57;;
10945;SDS011;5525;42.648;23.368;2023-12-28T05:13:57;19.20;;;11.02;;
10945;SDS011;5525;42.648;23.368;2023-12-28T05:16:25;17.05;;;10.30;;
10945;SDS011;5525;42.648;23.368;2023-12-28T05:18:52;15.77;;;9.80;;
10945;SDS011;5525;42.648;23.368;2023-12-28T05:21:19;19.35;;;10.88;;
10945;SDS011;5525;42.648;23.368;2023-12-28T05:23:46;17.70;;;10.45;;
10945;SDS011;5525;42.648;23.368;2023-12-28T05:26:13;16.88;;;12.00;;
10945;SDS011;5525;42.648;23.368;2023-12-28T05:28:39;17.77;;;11.45;;
10945;SDS011;5525;42.648;23.368;2023-12-28T05:31:06;16.13;;;10.27;;
10945;SDS011;5525;42.648;23.368;2023-12-28T05:33:34;15.68;;;10.45;;
10945;SDS011;5525;42.648;23.368;2023-12-28T05:36:01;15.52;;;10.43;;
10945;SDS011;5525;42.648;23.368;2023-12-28T05:38:28;12.25;;;8.05;;
10945;SDS011;5525;42.648;23.368;2023-12-28T05:40:54;10.13;;;6.22;;
10945;SDS011;5525;42.648;23.368;2023-12-28T05:43:21;13.90;;;7.70;;
10945;SDS011;5525;42.648;23.368;2023-12-28T05:45:48;14.73;;;7.32;;
10945;SDS011;5525;42.648;23.368;2023-12-28T05:48:15;12.10;;;8.18;;
10945;SDS011;5525;42.648;23.368;2023-12-28T05:50:43;22.80;;;14.20;;
10945;SDS011;5525;42.648;23.368;2023-12-28T05:53:10;7.93;;;4.43;;
10945;SDS011;5525;42.648;23.368;2023-12-28T05:55:39;13.50;;;9.40;;
10945;SDS011;5525;42.648;23.368;2023-12-28T05:58:06;11.20;;;7.20;;
10945;SDS011;5525;42.648;23.368;2023-12-28T06:00:33;10.93;;;7.28;;
10945;SDS011;5525;42.648;23.368;2023-12-28T06:03:01;14.68;;;8.00;;
10945;SDS011;5525;42.648;23.368;2023-12-28T06:05:27;11.80;;;6.68;;
10945;SDS011;5525;42.648;23.368;2023-12-28T06:07:56;12.55;;;6.35;;
10945;SDS011;5525;42.648;23.368;2023-12-28T06:10:22;14.27;;;7.90;;
10945;SDS011;5525;42.648;23.368;2023-12-28T06:12:50;11.88;;;6.55;;
10945;SDS011;5525;42.648;23.368;2023-12-28T06:15:17;12.35;;;6.22;;
10945;SDS011;5525;42.648;23.368;2023-12-28T06:17:43;12.65;;;6.32;;
10945;SDS011;5525;42.648;23.368;2023-12-28T06:20:10;13.85;;;7.15;;
10945;SDS011;5525;42.648;23.368;2023-12-28T06:22:37;13.65;;;7.45;;
10945;SDS011;5525;42.648;23.368;2023-12-28T06:25:06;7.43;;;4.35;;
10945;SDS011;5525;42.648;23.368;2023-12-28T06:27:33;8.60;;;5.13;;
10945;SDS011;5525;42.648;23.368;2023-12-28T06:30:00;7.97;;;4.32;;
10945;SDS011;5525;42.648;23.368;2023-12-28T06:32:25;7.40;;;4.75;;
10945;SDS011;5525;42.648;23.368;2023-12-28T06:34:52;6.32;;;3.90;;
10945;SDS011;5525;42.648;23.368;2023-12-28T06:37:19;11.13;;;7.10;;
10945;SDS011;5525;42.648;23.368;2023-12-28T06:39:45;13.13;;;7.88;;
10945;SDS011;5525;42.648;23.368;2023-12-28T06:42:14;9.77;;;6.30;;
10945;SDS011;5525;42.648;23.368;2023-12-28T06:44:41;8.90;;;5.82;;
10945;SDS011;5525;42.648;23.368;2023-12-28T06:47:07;8.98;;;5.07;;
10945;SDS011;5525;42.648;23.368;2023-12-28T06:49:34;8.98;;;5.25;;
10945;SDS011;5525;42.648;23.368;2023-12-28T06:52:01;9.13;;;6.15;;
10945;SDS011;5525;42.648;23.368;2023-12-28T06:54:27;10.73;;;6.18;;
10945;SDS011;5525;42.648;23.368;2023-12-28T06:56:54;11.13;;;6.85;;
10945;SDS011;5525;42.648;23.368;2023-12-28T06:59:22;8.85;;;4.95;;
10945;SDS011;5525;42.648;23.368;2023-12-28T07:01:49;10.10;;;5.57;;
10945;SDS011;5525;42.648;23.368;2023-12-28T07:04:16;10.85;;;5.80;;
10945;SDS011;5525;42.648;23.368;2023-12-28T07:06:43;11.48;;;6.75;;
10945;SDS011;5525;42.648;23.368;2023-12-28T07:09:09;9.40;;;5.68;;
10945;SDS011;5525;42.648;23.368;2023-12-28T07:11:36;7.93;;;5.25;;
10945;SDS011;5525;42.648;23.368;2023-12-28T07:14:03;14.13;;;7.22;;
10945;SDS011;5525;42.648;23.368;2023-12-28T07:16:31;10.00;;;6.07;;
10945;SDS011;5525;42.648;23.368;2023-12-28T07:18:58;8.80;;;5.75;;
10945;SDS011;5525;42.648;23.368;2023-12-28T07:21:25;10.32;;;6.93;;
10945;SDS011;5525;42.648;23.368;2023-12-28T07:23:52;10.00;;;6.68;;
10945;SDS011;5525;42.648;23.368;2023-12-28T07:26:18;7.22;;;5.63;;
10945;SDS011;5525;42.648;23.368;2023-12-28T07:28:45;9.43;;;7.03;;
10945;SDS011;5525;42.648;23.368;2023-12-28T07:31:21;8.98;;;6.47;;
10945;SDS011;5525;42.648;23.368;2023-12-28T07:33:50;10.02;;;6.53;;
10945;SDS011;5525;42.648;23.368;2023-12-28T07:36:17;8.48;;;5.78;;
10945;SDS011;5525;42.648;23.368;2023-12-28T07:38:44;11.60;;;7.32;;
10945;SDS011;5525;42.648;23.368;2023-12-28T07:41:11;12.35;;;7.40;;
10945;SDS011;5525;42.648;23.368;2023-12-28T07:43:37;11.90;;;7.18;;
10945;SDS011;5525;42.648;23.368;2023-12-28T07:46:04;10.95;;;7.57;;
10945;SDS011;5525;42.648;23.368;2023-12-28T07:48:31;10.90;;;7.38;;
10945;SDS011;5525;42.648;23.368;2023-12-28T07:51:03;13.32;;;9.38;;
10945;SDS011;5525;42.648;23.368;2023-12-28T07:53:30;18.42;;;9.75;;
10945;SDS011;5525;42.648;23.368;2023-12-28T07:55:57;10.68;;;7.82;;
10945;SDS011;5525;42.648;23.368;2023-12-28T07:58:24;10.82;;;7.65;;
10945;SDS011;5525;42.648;23.368;2023-12-28T08:00:50;11.07;;;7.25;;
10945;SDS011;5525;42.648;23.368;2023-12-28T08:03:18;10.45;;;6.57;;
10945;SDS011;5525;42.648;23.368;2023-12-28T08:05:44;11.35;;;6.80;;
10945;SDS011;5525;42.648;23.368;2023-12-28T08:08:14;12.45;;;8.00;;
10945;SDS011;5525;42.648;23.368;2023-12-28T08:10:41;9.23;;;6.22;;
10945;SDS011;5525;42.648;23.368;2023-12-28T08:13:07;8.43;;;5.90;;
10945;SDS011;5525;42.648;23.368;2023-12-28T08:15:34;11.48;;;7.43;;
10945;SDS011;5525;42.648;23.368;2023-12-28T08:18:01;13.13;;;8.50;;
10945;SDS011;5525;42.648;23.368;2023-12-28T08:20:28;12.70;;;6.95;;
10945;SDS011;5525;42.648;23.368;2023-12-28T08:22:54;8.85;;;7.05;;
10945;SDS011;5525;42.648;23.368;2023-12-28T08:25:23;12.02;;;7.20;;
10945;SDS011;5525;42.648;23.368;2023-12-28T08:27:49;14.20;;;9.23;;
10945;SDS011;5525;42.648;23.368;2023-12-28T08:30:16;16.70;;;11.02;;
10945;SDS011;5525;42.648;23.368;2023-12-28T08:32:43;18.30;;;11.70;;
10945;SDS011;5525;42.648;23.368;2023-12-28T08:35:10;18.67;;;12.73;;
10945;SDS011;5525;42.648;23.368;2023-12-28T08:37:36;16.65;;;12.05;;
10945;SDS011;5525;42.648;23.368;2023-12-28T08:40:04;20.75;;;12.02;;
10945;SDS011;5525;42.648;23.368;2023-12-28T08:42:33;19.48;;;13.55;;
10945;SDS011;5525;42.648;23.368;2023-12-28T08:45:00;22.33;;;14.73;;
10945;SDS011;5525;42.648;23.368;2023-12-28T08:47:26;21.98;;;14.75;;
10945;SDS011;5525;42.648;23.368;2023-12-28T08:49:53;22.48;;;15.80;;
10945;SDS011;5525;42.648;23.368;2023-12-28T08:52:20;21.52;;;15.50;;
10945;SDS011;5525;42.648;23.368;2023-12-28T08:54:47;23.25;;;14.88;;
10945;SDS011;5525;42.648;23.368;2023-12-28T08:57:14;22.58;;;16.38;;
10945;SDS011;5525;42.648;23.368;2023-12-28T08:59:42;24.05;;;16.40;;
10945;SDS011;5525;42.648;23.368;2023-12-28T09:02:08;24.95;;;15.07;;
10945;SDS011;5525;42.648;23.368;2023-12-28T09:04:35;20.40;;;14.45;;
10945;SDS011;5525;42.648;23.368;2023-12-28T09:07:03;23.90;;;17.58;;
10945;SDS011;5525;42.648;23.368;2023-12-28T09:09:30;29.25;;;18.08;;
10945;SDS011;5525;42.648;23.368;2023-12-28T09:11:57;29.90;;;18.10;;
10945;SDS011;5525;42.648;23.368;2023-12-28T09:14:24;27.40;;;18.00;;
10945;SDS011;5525;42.648;23.368;2023-12-28T09:16:52;28.40;;;18.55;;
10945;SDS011;5525;42.648;23.368;2023-12-28T09:19:19;29.33;;;19.00;;
10945;SDS011;5525;42.648;23.368;2023-12-28T09:21:45;32.20;;;19.48;;
10945;SDS011;5525;42.648;23.368;2023-12-28T09:24:12;35.70;;;19.63;;
10945;SDS011;5525;42.648;23.368;2023-12-28T09:26:40;28.80;;;20.35;;
10945;SDS011;5525;42.648;23.368;2023-12-28T09:29:07;30.23;;;20.55;;
10945;SDS011;5525;42.648;23.368;2023-12-28T09:31:34;31.33;;;19.95;;
10945;SDS011;5525;42.648;23.368;2023-12-28T09:34:02;31.83;;;20.60;;
10945;SDS011;5525;42.648;23.368;2023-12-28T09:36:29;32.08;;;19.80;;
10945;SDS011;5525;42.648;23.368;2023-12-28T09:38:56;33.03;;;20.52;;
10945;SDS011;5525;42.648;23.368;2023-12-28T09:41:25;31.10;;;20.67;;
10945;SDS011;5525;42.648;23.368;2023-12-28T09:43:53;33.00;;;20.95;;
10945;SDS011;5525;42.648;23.368;2023-12-28T09:46:24;29.05;;;19.63;;
10945;SDS011;5525;42.648;23.368;2023-12-28T09:48:52;33.92;;;21.08;;
10945;SDS011;5525;42.648;23.368;2023-12-28T09:51:22;27.75;;;20.15;;
10945;SDS011;5525;42.648;23.368;2023-12-28T09:53:50;27.58;;;19.77;;
10945;SDS011;5525;42.648;23.368;2023-12-28T09:56:17;31.90;;;20.70;;
10945;SDS011;5525;42.648;23.368;2023-12-28T09:58:44;31.85;;;20.85;;
10945;SDS011;5525;42.648;23.368;2023-12-28T10:01:14;29.27;;;19.10;;
10945;SDS011;5525;42.648;23.368;2023-12-28T10:03:41;26.75;;;18.90;;
10945;SDS011;5525;42.648;23.368;2023-12-28T10:06:07;27.85;;;18.70;;
10945;SDS011;5525;42.648;23.368;2023-12-28T10:08:36;26.38;;;18.88;;
10945;SDS011;5525;42.648;23.368;2023-12-28T10:11:02;30.20;;;18.77;;
10945;SDS011;5525;42.648;23.368;2023-12-28T10:13:32;27.85;;;18.63;;
10945;SDS011;5525;42.648;23.368;2023-12-28T10:16:00;25.40;;;18.65;;
10945;SDS011;5525;42.648;23.368;2023-12-28T10:18:28;28.45;;;18.27;;
10945;SDS011;5525;42.648;23.368;2023-12-28T10:20:55;27.02;;;18.58;;
10945;SDS011;5525;42.648;23.368;2023-12-28T10:23:22;34.78;;;20.38;;
10945;SDS011;5525;42.648;23.368;2023-12-28T10:25:55;28.92;;;19.92;;
10945;SDS011;5525;42.648;23.368;2023-12-28T10:28:22;27.45;;;20.50;;
10945;SDS011;5525;42.648;23.368;2023-12-28T10:30:53;28.88;;;20.27;;
10945;SDS011;5525;42.648;23.368;2023-12-28T10:33:20;27.80;;;18.52;;
10945;SDS011;5525;42.648;23.368;2023-12-28T10:35:48;32.95;;;20.58;;
10945;SDS011;5525;42.648;23.368;2023-12-28T10:38:16;30.88;;;19.77;;
10945;SDS011;5525;42.648;23.368;2023-12-28T10:40:44;31.40;;;20.92;;
10945;SDS011;5525;42.648;23.368;2023-12-28T10:43:15;30.67;;;20.77;;
10945;SDS011;5525;42.648;23.368;2023-12-28T10:45:45;28.73;;;18.92;;
10945;SDS011;5525;42.648;23.368;2023-12-28T10:48:13;32.08;;;20.83;;
10945;SDS011;5525;42.648;23.368;2023-12-28T10:50:40;31.88;;;21.45;;
10945;SDS011;5525;42.648;23.368;2023-12-28T10:53:11;28.92;;;19.98;;
10945;SDS011;5525;42.648;23.368;2023-12-28T10:55:48;28.05;;;19.42;;
10945;SDS011;5525;42.648;23.368;2023-12-28T10:58:28;28.27;;;19.13;;
10945;SDS011;5525;42.648;23.368;2023-12-28T11:01:05;24.00;;;17.27;;
10945;SDS011;5525;42.648;23.368;2023-12-28T11:03:37;31.40;;;18.40;;
10945;SDS011;5525;42.648;23.368;2023-12-28T11:06:07;27.30;;;18.08;;
10945;SDS011;5525;42.648;23.368;2023-12-28T11:08:35;29.10;;;17.83;;
10945;SDS011;5525;42.648;23.368;2023-12-28T11:11:03;24.85;;;17.55;;
10945;SDS011;5525;42.648;23.368;2023-12-28T11:13:38;33.90;;;21.48;;
10945;SDS011;5525;42.648;23.368;2023-12-28T11:16:06;32.50;;;19.50;;
10945;SDS011;5525;42.648;23.368;2023-12-28T11:18:33;31.20;;;21.52;;
10945;SDS011;5525;42.648;23.368;2023-12-28T11:21:00;33.90;;;21.27;;
10945;SDS011;5525;42.648;23.368;2023-12-28T11:23:27;33.63;;;21.75;;
10945;SDS011;5525;42.648;23.368;2023-12-28T11:25:55;30.67;;;22.85;;
10945;SDS011;5525;42.648;23.368;2023-12-28T11:28:23;28.60;;;21.77;;
10945;SDS011;5525;42.648;23.368;2023-12-28T11:30:52;33.58;;;21.80;;
10945;SDS011;5525;42.648;23.368;2023-12-28T11:33:19;35.05;;;23.50;;
10945;SDS011;5525;42.648;23.368;2023-12-28T11:35:47;30.52;;;21.10;;
10945;SDS011;5525;42.648;23.368;2023-12-28T11:38:14;30.77;;;22.20;;
10945;SDS011;5525;42.648;23.368;2023-12-28T11:40:42;31.92;;;21.15;;
10945;SDS011;5525;42.648;23.368;2023-12-28T11:43:15;33.05;;;22.88;;
10945;SDS011;5525;42.648;23.368;2023-12-28T11:45:47;31.40;;;21.67;;
10945;SDS011;5525;42.648;23.368;2023-12-28T11:48:24;28.98;;;21.02;;
10945;SDS011;5525;42.648;23.368;2023-12-28T11:50:53;30.50;;;21.52;;
10945;SDS011;5525;42.648;23.368;2023-12-28T11:53:23;32.22;;;21.63;;
10945;SDS011;5525;42.648;23.368;2023-12-28T11:55:50;31.40;;;20.25;;
10945;SDS011;5525;42.648;23.368;2023-12-28T11:58:18;33.63;;;22.38;;
10945;SDS011;5525;42.648;23.368;2023-12-28T12:00:45;31.20;;;20.23;;
10945;SDS011;5525;42.648;23.368;2023-12-28T12:03:13;31.35;;;20.02;;
10945;SDS011;5525;42.648;23.368;2023-12-28T12:05:41;29.88;;;20.20;;
10945;SDS011;5525;42.648;23.368;2023-12-28T12:08:09;24.13;;;17.48;;
10945;SDS011;5525;42.648;23.368;2023-12-28T12:10:38;28.10;;;18.08;;
10945;SDS011;5525;42.648;23.368;2023-12-28T12:13:05;25.65;;;17.38;;
10945;SDS011;5525;42.648;23.368;2023-12-28T12:15:32;23.55;;;15.90;;
10945;SDS011;5525;42.648;23.368;2023-12-28T12:18:00;23.67;;;16.30;;
10945;SDS011;5525;42.648;23.368;2023-12-28T12:20:27;22.27;;;15.27;;
10945;SDS011;5525;42.648;23.368;2023-12-28T12:22:58;20.95;;;15.75;;
10945;SDS011;5525;42.648;23.368;2023-12-28T12:25:25;19.60;;;13.85;;
10945;SDS011;5525;42.648;23.368;2023-12-28T12:27:52;22.77;;;15.80;;
10945;SDS011;5525;42.648;23.368;2023-12-28T12:30:19;22.52;;;16.42;;
10945;SDS011;5525;42.648;23.368;2023-12-28T12:32:46;25.90;;;16.17;;
10945;SDS011;5525;42.648;23.368;2023-12-28T12:35:14;25.48;;;17.42;;
10945;SDS011;5525;42.648;23.368;2023-12-28T12:37:42;27.90;;;17.40;;
10945;SDS011;5525;42.648;23.368;2023-12-28T12:40:12;25.33;;;17.20;;
10945;SDS011;5525;42.648;23.368;2023-12-28T12:42:40;24.13;;;16.40;;
10945;SDS011;5525;42.648;23.368;2023-12-28T12:45:07;26.27;;;17.05;;
10945;SDS011;5525;42.648;23.368;2023-12-28T12:47:34;25.63;;;16.77;;
10945;SDS011;5525;42.648;23.368;2023-12-28T12:50:01;27.65;;;17.33;;
10945;SDS011;5525;42.648;23.368;2023-12-28T12:52:29;25.52;;;15.98;;
10945;SDS011;5525;42.648;23.368;2023-12-28T12:54:56;34.03;;;16.35;;
10945;SDS011;5525;42.648;23.368;2023-12-28T12:57:25;29.05;;;16.65;;
10945;SDS011;5525;42.648;23.368;2023-12-28T12:59:52;21.83;;;15.43;;
10945;SDS011;5525;42.648;23.368;2023-12-28T13:02:21;23.65;;;15.05;;
10945;SDS011;5525;42.648;23.368;2023-12-28T13:04:50;23.10;;;14.52;;
10945;SDS011;5525;42.648;23.368;2023-12-28T13:07:18;20.83;;;14.32;;
10945;SDS011;5525;42.648;23.368;2023-12-28T13:09:46;21.58;;;14.77;;
10945;SDS011;5525;42.648;23.368;2023-12-28T13:12:12;20.65;;;14.32;;
10945;SDS011;5525;42.648;23.368;2023-12-28T13:14:41;16.90;;;14.07;;
10945;SDS011;5525;42.648;23.368;2023-12-28T13:17:09;22.25;;;14.38;;
10945;SDS011;5525;42.648;23.368;2023-12-28T13:19:36;22.17;;;16.30;;
10945;SDS011;5525;42.648;23.368;2023-12-28T13:22:03;20.50;;;14.77;;
10945;SDS011;5525;42.648;23.368;2023-12-28T13:24:30;21.20;;;14.52;;
10945;SDS011;5525;42.648;23.368;2023-12-28T13:26:57;19.65;;;14.10;;
10945;SDS011;5525;42.648;23.368;2023-12-28T13:29:24;17.52;;;14.07;;
10945;SDS011;5525;42.648;23.368;2023-12-28T13:31:52;19.45;;;14.63;;
10945;SDS011;5525;42.648;23.368;2023-12-28T13:34:18;20.33;;;14.45;;
10945;SDS011;5525;42.648;23.368;2023-12-28T13:36:45;20.00;;;14.68;;
10945;SDS011;5525;42.648;23.368;2023-12-28T13:39:13;16.88;;;13.75;;
10945;SDS011;5525;42.648;23.368;2023-12-28T13:41:39;20.20;;;15.15;;
10945;SDS011;5525;42.648;23.368;2023-12-28T13:44:06;18.48;;;14.23;;
10945;SDS011;5525;42.648;23.368;2023-12-28T13:46:37;21.05;;;15.23;;
10945;SDS011;5525;42.648;23.368;2023-12-28T13:49:06;24.58;;;14.88;;
10945;SDS011;5525;42.648;23.368;2023-12-28T13:51:33;20.70;;;14.75;;
10945;SDS011;5525;42.648;23.368;2023-12-28T13:53:59;25.95;;;16.35;;
10945;SDS011;5525;42.648;23.368;2023-12-28T13:56:26;22.85;;;14.90;;
10945;SDS011;5525;42.648;23.368;2023-12-28T13:58:53;22.63;;;14.95;;
10945;SDS011;5525;42.648;23.368;2023-12-28T14:01:20;25.33;;;14.55;;
10945;SDS011;5525;42.648;23.368;2023-12-28T14:03:47;19.67;;;14.93;;
10945;SDS011;5525;42.648;23.368;2023-12-28T14:06:18;22.83;;;15.55;;
10945;SDS011;5525;42.648;23.368;2023-12-28T14:08:45;22.80;;;15.43;;
10945;SDS011;5525;42.648;23.368;2023-12-28T14:11:12;24.08;;;16.15;;
10945;SDS011;5525;42.648;23.368;2023-12-28T14:13:38;24.88;;;16.52;;
10945;SDS011;5525;42.648;23.368;2023-12-28T14:16:05;26.70;;;17.23;;
10945;SDS011;5525;42.648;23.368;2023-12-28T14:18:33;22.27;;;16.20;;
10945;SDS011;5525;42.648;23.368;2023-12-28T14:21:00;26.58;;;16.73;;
10945;SDS011;5525;42.648;23.368;2023-12-28T14:23:29;27.42;;;16.92;;
10945;SDS011;5525;42.648;23.368;2023-12-28T14:25:56;24.25;;;16.55;;
10945;SDS011;5525;42.648;23.368;2023-12-28T14:28:29;23.48;;;16.80;;
10945;SDS011;5525;42.648;23.368;2023-12-28T14:30:59;26.85;;;17.13;;
10945;SDS011;5525;42.648;23.368;2023-12-28T14:33:27;28.95;;;17.80;;